Time,TemperatureF,DewpointF,PressureIn,WindDirection,WindDirectionDegrees,WindSpeedMPH,WindSpeedGustMPH,Humidity,HourlyPrecipIn,Conditions,Clouds,dailyrainin,SoftwareType,DateUTC
2013-01-21 00:05:00,37.3,36.3,30.24,NNW,337,1.0,1.0,96,0.00,,,0.00,Wunderground v.1.15,2013-01-21 08:05:00,
2013-01-21 00:15:00,37.3,36.3,30.24,North,4,0.0,2.0,96,0.00,,,0.00,Wunderground v.1.15,2013-01-21 08:15:00,
2013-01-21 00:20:00,37.3,36.3,30.24,NW,307,0.0,0.0,96,0.00,,,0.00,Wunderground v.1.15,2013-01-21 08:20:00,
2013-01-21 00:25:00,37.3,36.3,30.24,NW,310,0.0,2.0,96,0.00,,,0.00,Wunderground v.1.15,2013-01-21 08:25:00,
2013-01-21 00:35:00,37.4,36.4,30.24,NNW,341,0.0,2.0,96,0.00,,,0.00,Wunderground v.1.15,2013-01-21 08:35:00,
2013-01-21 00:40:00,37.4,36.4,30.24,North,6,0.0,6.0,96,0.00,,,0.00,Wunderground v.1.15,2013-01-21 08:40:00,
2013-01-21 00:50:00,37.3,36.3,30.24,NNE,16,0.0,6.0,96,0.00,,,0.00,Wunderground v.1.15,2013-01-21 08:50:00,
2013-01-21 00:55:00,37.3,36.3,30.24,NW,322,0.0,6.0,96,0.00,,,0.00,Wunderground v.1.15,2013-01-21 08:55:00,
2013-01-21 01:05:00,37.3,36.3,30.24,NNE,25,0.0,1.0,96,0.00,,,0.00,Wunderground v.1.15,2013-01-21 09:05:00,
2013-01-21 01:15:00,37.1,36.1,30.24,NE,37,0.0,0.0,96,0.00,,,0.00,Wunderground v.1.15,2013-01-21 09:15:00,
2013-01-21 01:25:00,36.9,35.6,30.24,NE,37,0.0,0.0,95,0.00,,,0.00,Wunderground v.1.15,2013-01-21 09:25:00,
2013-01-21 01:30:00,36.8,35.5,30.24,NE,37,0.0,0.0,95,0.00,,,0.00,Wunderground v.1.15,2013-01-21 09:30:00,
2013-01-21 01:35:00,36.7,35.4,30.24,WNW,300,0.0,2.0,95,0.00,,,0.00,Wunderground v.1.15,2013-01-21 09:35:00,
2013-01-21 01:45:00,36.6,35.6,30.24,NNW,348,0.0,2.0,96,0.00,,,0.00,Wunderground v.1.15,2013-01-21 09:45:00,
2013-01-21 01:55:00,36.6,35.3,30.24,NNW,348,0.0,2.0,95,0.00,,,0.00,Wunderground v.1.15,2013-01-21 09:55:00,
2013-01-21 02:00:00,36.4,35.1,30.24,North,353,0.0,0.0,95,0.00,,,0.00,Wunderground v.1.15,2013-01-21 10:00:00,
2013-01-21 02:05:00,36.3,35.0,30.25,North,353,0.0,0.0,95,0.00,,,0.00,Wunderground v.1.15,2013-01-21 10:05:00,
2013-01-21 02:15:00,36.0,34.7,30.25,North,353,0.0,0.0,95,0.00,,,0.00,Wunderground v.1.15,2013-01-21 10:15:00,
2013-01-21 02:25:00,35.7,34.1,30.25,North,353,0.0,0.0,94,0.00,,,0.00,Wunderground v.1.15,2013-01-21 10:25:00,
2013-01-21 02:35:00,35.5,34.2,30.25,North,353,0.0,1.0,95,0.00,,,0.00,Wunderground v.1.15,2013-01-21 10:35:00,
2013-01-21 02:45:00,35.4,33.8,30.25,North,354,0.0,1.0,94,0.00,,,0.00,Wunderground v.1.15,2013-01-21 10:45:00,
2013-01-21 02:55:00,35.2,33.6,30.25,North,354,0.0,1.0,94,0.00,,,0.00,Wunderground v.1.15,2013-01-21 10:55:00,
2013-01-21 03:05:00,35.2,33.9,30.24,North,354,0.0,0.0,95,0.00,,,0.00,Wunderground v.1.15,2013-01-21 11:05:00,
2013-01-21 03:15:00,35.1,33.8,30.24,North,354,0.0,0.0,95,0.00,,,0.00,Wunderground v.1.15,2013-01-21 11:15:00,
2013-01-21 03:20:00,35.1,33.8,30.24,North,354,0.0,0.0,95,0.00,,,0.00,Wunderground v.1.15,2013-01-21 11:20:00,
2013-01-21 03:25:00,35.1,33.8,30.24,North,354,0.0,0.0,95,0.00,,,0.00,Wunderground v.1.15,2013-01-21 11:25:00,
2013-01-21 03:35:00,35.1,33.8,30.24,North,354,0.0,1.0,95,0.00,,,0.00,Wunderground v.1.15,2013-01-21 11:35:00,
2013-01-21 03:45:00,35.0,33.7,30.24,North,354,0.0,1.0,95,0.00,,,0.00,Wunderground v.1.15,2013-01-21 11:45:00,
2013-01-21 03:55:00,35.0,33.7,30.24,North,354,0.0,1.0,95,0.00,,,0.00,Wunderground v.1.15,2013-01-21 11:55:00,
2013-01-21 04:05:00,35.0,33.7,30.24,North,354,0.0,0.0,95,0.00,,,0.00,Wunderground v.1.15,2013-01-21 12:05:00,
2013-01-21 04:15:00,34.9,33.6,30.24,North,354,0.0,0.0,95,0.00,,,0.00,Wunderground v.1.15,2013-01-21 12:15:00,
2013-01-21 04:25:00,34.8,33.5,30.23,North,354,0.0,0.0,95,0.00,,,0.00,Wunderground v.1.15,2013-01-21 12:25:00,
2013-01-21 04:35:00,34.7,33.4,30.23,North,354,0.0,0.0,95,0.00,,,0.00,Wunderground v.1.15,2013-01-21 12:35:00,
2013-01-21 04:45:00,34.6,33.3,30.23,North,354,0.0,0.0,95,0.00,,,0.00,Wunderground v.1.15,2013-01-21 12:45:00,
2013-01-21 04:55:00,34.5,33.2,30.22,North,354,0.0,0.0,95,0.00,,,0.00,Wunderground v.1.15,2013-01-21 12:55:00,
2013-01-21 05:05:00,34.4,33.1,30.22,North,354,0.0,0.0,95,0.00,,,0.00,Wunderground v.1.15,2013-01-21 13:05:00,
2013-01-21 05:15:00,34.2,32.9,30.22,North,354,0.0,0.0,95,0.00,,,0.00,Wunderground v.1.15,2013-01-21 13:15:00,
2013-01-21 05:25:00,34.1,32.8,30.22,North,354,0.0,0.0,95,0.00,,,0.00,Wunderground v.1.15,2013-01-21 13:25:00,
2013-01-21 05:35:00,34.0,32.7,30.21,NW,326,0.0,0.0,95,0.00,,,0.00,Wunderground v.1.15,2013-01-21 13:35:00,
2013-01-21 05:45:00,33.9,32.6,30.21,North,349,0.0,0.0,95,0.00,,,0.00,Wunderground v.1.15,2013-01-21 13:45:00,
2013-01-21 05:55:00,33.9,32.6,30.20,NNW,348,0.0,0.0,95,0.00,,,0.00,Wunderground v.1.15,2013-01-21 13:55:00,
2013-01-21 06:05:00,33.9,32.6,30.20,North,355,0.0,0.0,95,0.00,,,0.00,Wunderground v.1.15,2013-01-21 14:05:00,
2013-01-21 06:15:00,33.9,32.6,30.19,North,355,0.0,0.0,95,0.00,,,0.00,Wunderground v.1.15,2013-01-21 14:15:00,
2013-01-21 06:25:00,33.9,32.9,30.19,NNW,333,0.0,0.0,96,0.00,,,0.00,Wunderground v.1.15,2013-01-21 14:25:00,
2013-01-21 06:35:00,33.8,32.5,30.19,North,5,0.0,2.0,95,0.00,,,0.00,Wunderground v.1.15,2013-01-21 14:35:00,
2013-01-21 06:45:00,33.7,32.4,30.19,North,6,0.0,2.0,95,0.00,,,0.00,Wunderground v.1.15,2013-01-21 14:45:00,
2013-01-21 06:55:00,33.7,32.4,30.19,North,6,0.0,2.0,95,0.00,,,0.00,Wunderground v.1.15,2013-01-21 14:55:00,
2013-01-21 07:05:00,33.7,32.7,30.19,North,6,0.0,0.0,96,0.00,,,0.00,Wunderground v.1.15,2013-01-21 15:05:00,
2013-01-21 07:15:00,33.8,32.8,30.18,North,6,0.0,0.0,96,0.00,,,0.00,Wunderground v.1.15,2013-01-21 15:15:00,
2013-01-21 07:25:00,33.9,32.9,30.17,North,6,0.0,0.0,96,0.00,,,0.00,Wunderground v.1.15,2013-01-21 15:25:00,
2013-01-21 07:35:00,34.0,33.0,30.17,North,6,0.0,1.0,96,0.00,,,0.00,Wunderground v.1.15,2013-01-21 15:35:00,
2013-01-21 07:45:00,34.0,33.0,30.18,North,4,0.0,1.0,96,0.00,,,0.00,Wunderground v.1.15,2013-01-21 15:45:00,
2013-01-21 07:55:00,34.0,33.0,30.18,North,4,0.0,1.0,96,0.00,,,0.00,Wunderground v.1.15,2013-01-21 15:55:00,
2013-01-21 08:05:00,34.1,33.1,30.19,North,4,0.0,0.0,96,0.00,,,0.00,Wunderground v.1.15,2013-01-21 16:05:00,
2013-01-21 08:15:00,34.1,33.1,30.19,North,4,0.0,0.0,96,0.00,,,0.00,Wunderground v.1.15,2013-01-21 16:15:00,
2013-01-21 08:20:00,34.1,33.1,30.18,North,4,0.0,0.0,96,0.00,,,0.00,Wunderground v.1.15,2013-01-21 16:20:00,
2013-01-21 08:25:00,34.2,33.2,30.19,North,4,0.0,0.0,96,0.00,,,0.00,Wunderground v.1.15,2013-01-21 16:25:00,
2013-01-21 08:35:00,34.3,33.3,30.19,North,4,0.0,0.0,96,0.00,,,0.00,Wunderground v.1.15,2013-01-21 16:35:00,
2013-01-21 08:40:00,34.4,33.4,30.19,North,4,0.0,0.0,96,0.00,,,0.00,Wunderground v.1.15,2013-01-21 16:40:00,
2013-01-21 08:45:00,34.5,33.5,30.18,North,4,0.0,0.0,96,0.00,,,0.00,Wunderground v.1.15,2013-01-21 16:45:00,
2013-01-21 08:55:00,34.8,34.0,30.19,North,4,0.0,0.0,97,0.00,,,0.00,Wunderground v.1.15,2013-01-21 16:55:00,
2013-01-21 09:05:00,35.0,34.0,30.19,North,4,0.0,0.0,96,0.00,,,0.00,Wunderground v.1.15,2013-01-21 17:05:00,
2013-01-21 09:15:00,35.2,34.2,30.20,North,4,0.0,0.0,96,0.00,,,0.00,Wunderground v.1.15,2013-01-21 17:15:00,
2013-01-21 09:25:00,35.2,34.2,30.20,North,4,0.0,0.0,96,0.00,,,0.00,Wunderground v.1.15,2013-01-21 17:25:00,
2013-01-21 09:35:00,35.3,34.3,30.20,North,4,0.0,0.0,96,0.00,,,0.00,Wunderground v.1.15,2013-01-21 17:35:00,
2013-01-21 09:45:00,35.5,34.5,30.20,North,4,0.0,0.0,96,0.00,,,0.00,Wunderground v.1.15,2013-01-21 17:45:00,
2013-01-21 09:55:00,35.8,34.8,30.21,North,4,0.0,0.0,96,0.00,,,0.00,Wunderground v.1.15,2013-01-21 17:55:00,
2013-01-21 10:05:00,36.1,35.1,30.21,North,4,0.0,0.0,96,0.00,,,0.00,Wunderground v.1.15,2013-01-21 18:05:00,
2013-01-21 10:15:00,36.1,34.8,30.21,North,4,0.0,0.0,95,0.00,,,0.00,Wunderground v.1.15,2013-01-21 18:15:00,
2013-01-21 10:25:00,36.2,34.9,30.21,North,4,0.0,0.0,95,0.00,,,0.00,Wunderground v.1.15,2013-01-21 18:25:00,
2013-01-21 10:35:00,36.4,35.1,30.21,North,4,0.0,1.0,95,0.00,,,0.00,Wunderground v.1.15,2013-01-21 18:35:00,
2013-01-21 10:45:00,36.6,35.0,30.21,North,4,0.0,1.0,94,0.00,,,0.00,Wunderground v.1.15,2013-01-21 18:45:00,
2013-01-21 10:55:00,36.9,35.3,30.21,SSW,202,0.0,1.0,94,0.00,,,0.00,Wunderground v.1.15,2013-01-21 18:55:00,
2013-01-21 11:05:00,37.0,35.2,30.21,ESE,115,0.0,0.0,93,0.00,,,0.00,Wunderground v.1.15,2013-01-21 19:05:00,
2013-01-21 11:15:00,37.4,35.6,30.21,SE,142,0.0,0.0,93,0.00,,,0.00,Wunderground v.1.15,2013-01-21 19:15:00,
2013-01-21 11:25:00,37.7,35.6,30.20,SE,136,0.0,0.0,92,0.00,,,0.00,Wunderground v.1.15,2013-01-21 19:25:00,
2013-01-21 11:35:00,38.1,35.7,30.20,SE,133,0.0,0.0,91,0.00,,,0.00,Wunderground v.1.15,2013-01-21 19:35:00,
2013-01-21 11:45:00,38.5,35.8,30.20,SE,133,0.0,0.0,90,0.00,,,0.00,Wunderground v.1.15,2013-01-21 19:45:00,
2013-01-21 11:50:00,38.7,36.0,30.20,SE,133,0.0,0.0,90,0.00,,,0.00,Wunderground v.1.15,2013-01-21 19:50:00,
2013-01-21 11:55:00,38.8,35.8,30.19,SE,133,0.0,0.0,89,0.00,,,0.00,Wunderground v.1.15,2013-01-21 19:55:00,
2013-01-21 12:05:00,38.9,35.9,30.19,ENE,65,0.0,0.0,89,0.00,,,0.00,Wunderground v.1.15,2013-01-21 20:05:00,
2013-01-21 12:15:00,38.9,35.9,30.19,ENE,62,0.0,0.0,89,0.00,,,0.00,Wunderground v.1.15,2013-01-21 20:15:00,
2013-01-21 12:25:00,38.8,35.8,30.19,NNE,29,0.0,0.0,89,0.00,,,0.00,Wunderground v.1.15,2013-01-21 20:25:00,
2013-01-21 12:35:00,38.8,35.8,30.19,NNE,29,0.0,1.0,89,0.00,,,0.00,Wunderground v.1.15,2013-01-21 20:35:00,
2013-01-21 12:45:00,38.8,35.6,30.18,NNE,30,0.0,1.0,88,0.00,,,0.00,Wunderground v.1.15,2013-01-21 20:45:00,
2013-01-21 12:55:00,39.0,35.7,30.18,North,354,0.0,1.0,88,0.00,,,0.00,Wunderground v.1.15,2013-01-21 20:55:00,
2013-01-21 13:05:00,39.1,35.8,30.18,North,7,0.0,0.0,88,0.00,,,0.00,Wunderground v.1.15,2013-01-21 21:05:00,
2013-01-21 13:15:00,39.4,36.1,30.17,ENE,72,0.0,0.0,88,0.00,,,0.00,Wunderground v.1.15,2013-01-21 21:15:00,
2013-01-21 13:25:00,39.8,36.0,30.17,North,2,0.0,0.0,86,0.00,,,0.00,Wunderground v.1.15,2013-01-21 21:25:00,
2013-01-21 13:35:00,39.7,35.9,30.17,NNE,13,0.0,1.0,86,0.00,,,0.00,Wunderground v.1.15,2013-01-21 21:35:00,
2013-01-21 13:40:00,39.7,35.9,30.17,NNE,16,0.0,1.0,86,0.00,,,0.00,Wunderground v.1.15,2013-01-21 21:40:00,
2013-01-21 13:45:00,39.8,36.0,30.16,NNE,16,0.0,1.0,86,0.00,,,0.00,Wunderground v.1.15,2013-01-21 21:45:00,
2013-01-21 13:55:00,39.8,35.7,30.16,NNE,14,0.0,1.0,85,0.00,,,0.00,Wunderground v.1.15,2013-01-21 21:55:00,
2013-01-21 14:05:00,39.5,35.7,30.16,North,350,0.0,0.0,86,0.00,,,0.00,Wunderground v.1.15,2013-01-21 22:05:00,
2013-01-21 14:15:00,39.4,35.6,30.15,NNW,330,0.0,0.0,86,0.00,,,0.00,Wunderground v.1.15,2013-01-21 22:15:00,
2013-01-21 14:20:00,39.4,35.6,30.15,NNW,330,0.0,0.0,86,0.00,,,0.00,Wunderground v.1.15,2013-01-21 22:20:00,
2013-01-21 14:25:00,39.4,35.9,30.15,NNE,18,0.0,0.0,87,0.00,,,0.00,Wunderground v.1.15,2013-01-21 22:25:00,
2013-01-21 14:35:00,39.4,35.9,30.15,NNE,18,0.0,1.0,87,0.00,,,0.00,Wunderground v.1.15,2013-01-21 22:35:00,
2013-01-21 14:40:00,39.5,35.7,30.15,NNE,18,0.0,1.0,86,0.00,,,0.00,Wunderground v.1.15,2013-01-21 22:40:00,
2013-01-21 14:45:00,39.6,35.8,30.15,NNE,18,0.0,1.0,86,0.00,,,0.00,Wunderground v.1.15,2013-01-21 22:45:00,
2013-01-21 14:55:00,39.7,35.9,30.14,NNE,18,0.0,1.0,86,0.00,,,0.00,Wunderground v.1.15,2013-01-21 22:55:00,
2013-01-21 15:00:00,39.7,35.6,30.14,North,357,0.0,0.0,85,0.00,,,0.00,Wunderground v.1.15,2013-01-21 23:00:00,
2013-01-21 15:05:00,39.5,35.4,30.14,North,357,0.0,0.0,85,0.00,,,0.00,Wunderground v.1.15,2013-01-21 23:05:00,
2013-01-21 15:15:00,39.2,35.4,30.14,NW,307,0.0,1.0,86,0.00,,,0.00,Wunderground v.1.15,2013-01-21 23:15:00,
2013-01-21 15:20:00,38.9,35.1,30.14,NNW,338,0.0,0.0,86,0.00,,,0.00,Wunderground v.1.15,2013-01-21 23:20:00,
2013-01-21 15:25:00,38.9,35.4,30.14,NNW,338,0.0,0.0,87,0.00,,,0.00,Wunderground v.1.15,2013-01-21 23:25:00,
2013-01-21 15:35:00,38.9,35.4,30.14,NNW,338,0.0,1.0,87,0.00,,,0.00,Wunderground v.1.15,2013-01-21 23:35:00,
2013-01-21 15:45:00,38.9,35.4,30.13,NNW,338,0.0,1.0,87,0.00,,,0.00,Wunderground v.1.15,2013-01-21 23:45:00,
2013-01-21 15:55:00,38.6,35.1,30.13,NW,316,0.0,1.0,87,0.00,,,0.00,Wunderground v.1.15,2013-01-21 23:55:00,
2013-01-21 16:05:00,38.5,35.0,30.13,NNW,327,0.0,0.0,87,0.00,,,0.00,Wunderground v.1.15,2013-01-22 00:05:00,
2013-01-21 16:15:00,38.2,35.0,30.13,North,353,0.0,0.0,88,0.00,,,0.00,Wunderground v.1.15,2013-01-22 00:15:00,
2013-01-21 16:25:00,38.1,35.1,30.14,North,353,0.0,0.0,89,0.00,,,0.00,Wunderground v.1.15,2013-01-22 00:25:00,
2013-01-21 16:35:00,38.1,35.1,30.14,North,353,0.0,1.0,89,0.00,,,0.00,Wunderground v.1.15,2013-01-22 00:35:00,
2013-01-21 16:45:00,37.4,34.5,30.14,NW,315,0.0,3.0,89,0.00,,,0.00,Wunderground v.1.15,2013-01-22 00:45:00,
2013-01-21 16:55:00,37.2,34.5,30.13,WNW,300,0.0,3.0,90,0.00,,,0.00,Wunderground v.1.15,2013-01-22 00:55:00,
2013-01-21 17:05:00,36.7,34.3,30.13,NW,306,1.0,1.0,91,0.00,,,0.00,Wunderground v.1.15,2013-01-22 01:05:00,
2013-01-21 17:15:00,36.6,34.2,30.13,NW,306,0.0,0.0,91,0.00,,,0.00,Wunderground v.1.15,2013-01-22 01:15:00,
2013-01-21 17:25:00,36.7,34.6,30.13,NW,306,0.0,0.0,92,0.00,,,0.00,Wunderground v.1.15,2013-01-22 01:25:00,
2013-01-21 17:30:00,36.7,34.3,30.13,NW,306,0.0,0.0,91,0.00,,,0.00,Wunderground v.1.15,2013-01-22 01:30:00,
2013-01-21 17:35:00,36.8,34.4,30.13,NW,306,0.0,2.0,91,0.00,,,0.00,Wunderground v.1.15,2013-01-22 01:35:00,
2013-01-21 17:45:00,37.0,34.6,30.13,NW,306,0.0,2.0,91,0.00,,,0.00,Wunderground v.1.15,2013-01-22 01:45:00,
2013-01-21 17:55:00,37.2,34.8,30.12,SW,231,0.0,2.0,91,0.00,,,0.00,Wunderground v.1.15,2013-01-22 01:55:00,
2013-01-21 18:05:00,37.3,34.9,30.12,SW,231,0.0,0.0,91,0.00,,,0.00,Wunderground v.1.15,2013-01-22 02:05:00,
2013-01-21 18:15:00,37.5,35.1,30.12,South,185,0.0,0.0,91,0.00,,,0.00,Wunderground v.1.15,2013-01-22 02:15:00,
2013-01-21 18:25:00,37.4,35.0,30.13,SSE,148,0.0,0.0,91,0.00,,,0.00,Wunderground v.1.15,2013-01-22 02:25:00,
2013-01-21 18:35:00,37.3,34.9,30.13,SSE,149,0.0,2.0,91,0.00,,,0.00,Wunderground v.1.15,2013-01-22 02:35:00,
2013-01-21 18:45:00,37.1,34.7,30.13,South,175,0.0,2.0,91,0.00,,,0.00,Wunderground v.1.15,2013-01-22 02:45:00,
2013-01-21 18:55:00,37.0,34.6,30.12,East,93,0.0,2.0,91,0.00,,,0.00,Wunderground v.1.15,2013-01-22 02:55:00,
2013-01-21 19:05:00,36.9,34.5,30.12,East,100,0.0,0.0,91,0.00,,,0.00,Wunderground v.1.15,2013-01-22 03:05:00,
2013-01-21 19:10:00,36.9,34.5,30.12,South,189,0.0,0.0,91,0.00,,,0.00,Wunderground v.1.15,2013-01-22 03:10:00,
2013-01-21 19:15:00,36.8,34.4,30.11,SE,146,0.0,0.0,91,0.00,,,0.00,Wunderground v.1.15,2013-01-22 03:15:00,
2013-01-21 19:25:00,36.6,34.2,30.12,SSE,158,0.0,0.0,91,0.00,,,0.00,Wunderground v.1.15,2013-01-22 03:25:00,
2013-01-21 19:35:00,36.5,34.1,30.13,SSE,158,0.0,3.0,91,0.00,,,0.00,Wunderground v.1.15,2013-01-22 03:35:00,
2013-01-21 19:40:00,36.5,34.4,30.12,SSE,158,0.0,3.0,92,0.00,,,0.00,Wunderground v.1.15,2013-01-22 03:40:00,
2013-01-21 19:45:00,36.5,34.4,30.13,SSE,158,0.0,3.0,92,0.00,,,0.00,Wunderground v.1.15,2013-01-22 03:45:00,
2013-01-21 19:55:00,36.6,34.5,30.12,SSE,159,0.0,3.0,92,0.00,,,0.00,Wunderground v.1.15,2013-01-22 03:55:00,
2013-01-21 20:05:00,36.6,34.5,30.13,SSE,159,0.0,0.0,92,0.00,,,0.00,Wunderground v.1.15,2013-01-22 04:05:00,
2013-01-21 20:15:00,36.7,34.6,30.13,SSE,159,0.0,0.0,92,0.00,,,0.00,Wunderground v.1.15,2013-01-22 04:15:00,
2013-01-21 20:20:00,36.8,34.7,30.13,SSE,159,0.0,0.0,92,0.00,,,0.00,Wunderground v.1.15,2013-01-22 04:20:00,
2013-01-21 20:25:00,36.9,35.1,30.13,SSE,159,0.0,0.0,93,0.00,,,0.00,Wunderground v.1.15,2013-01-22 04:25:00,
2013-01-21 20:35:00,37.2,35.4,30.13,SE,124,0.0,1.0,93,0.00,,,0.00,Wunderground v.1.15,2013-01-22 04:35:00,
2013-01-21 20:40:00,37.2,35.4,30.13,SE,129,0.0,1.0,93,0.00,,,0.00,Wunderground v.1.15,2013-01-22 04:40:00,
2013-01-21 20:45:00,37.3,35.5,30.13,SE,146,0.0,1.0,93,0.00,,,0.00,Wunderground v.1.15,2013-01-22 04:45:00,
2013-01-21 20:55:00,37.2,35.1,30.13,SSE,160,0.0,1.0,92,0.00,,,0.00,Wunderground v.1.15,2013-01-22 04:55:00,
2013-01-21 21:00:00,37.1,35.3,30.13,South,175,0.0,0.0,93,0.00,,,0.00,Wunderground v.1.15,2013-01-22 05:00:00,
2013-01-21 21:05:00,37.1,35.0,30.13,SSW,212,0.0,1.0,92,0.00,,,0.00,Wunderground v.1.15,2013-01-22 05:05:00,
2013-01-21 21:10:00,37.0,34.9,30.13,SSE,156,0.0,0.0,92,0.00,,,0.00,Wunderground v.1.15,2013-01-22 05:10:00,
2013-01-21 21:15:00,36.9,34.8,30.13,ENE,70,0.0,0.0,92,0.00,,,0.00,Wunderground v.1.15,2013-01-22 05:15:00,
2013-01-21 21:20:00,36.7,34.3,30.13,South,191,0.0,0.0,91,0.00,,,0.00,Wunderground v.1.15,2013-01-22 05:20:00,
2013-01-21 21:25:00,36.5,34.4,30.13,South,180,0.0,0.0,92,0.00,,,0.00,Wunderground v.1.15,2013-01-22 05:25:00,
2013-01-21 21:35:00,35.9,33.5,30.13,South,189,1.0,1.0,91,0.00,,,0.00,Wunderground v.1.15,2013-01-22 05:35:00,
2013-01-21 21:45:00,35.6,33.5,30.13,SSE,158,0.0,4.0,92,0.00,,,0.00,Wunderground v.1.15,2013-01-22 05:45:00,
2013-01-21 21:55:00,35.5,33.4,30.13,East,87,0.0,4.0,92,0.00,,,0.00,Wunderground v.1.15,2013-01-22 05:55:00,
2013-01-21 22:00:00,35.4,33.3,30.14,SSE,157,0.0,0.0,92,0.00,,,0.00,Wunderground v.1.15,2013-01-22 06:00:00,
2013-01-21 22:05:00,35.3,33.2,30.13,South,190,0.0,0.0,92,0.00,,,0.00,Wunderground v.1.15,2013-01-22 06:05:00,
2013-01-21 22:15:00,34.9,32.8,30.13,SE,138,0.0,0.0,92,0.00,,,0.00,Wunderground v.1.15,2013-01-22 06:15:00,
2013-01-21 22:25:00,34.7,32.6,30.14,SSE,166,0.0,0.0,92,0.00,,,0.00,Wunderground v.1.15,2013-01-22 06:25:00,
2013-01-21 22:35:00,34.3,32.2,30.13,South,175,0.0,3.0,92,0.00,,,0.00,Wunderground v.1.15,2013-01-22 06:35:00,
2013-01-21 22:45:00,34.2,32.1,30.12,ESE,119,0.0,3.0,92,0.00,,,0.00,Wunderground v.1.15,2013-01-22 06:45:00,
2013-01-21 22:55:00,34.2,32.1,30.13,ESE,120,0.0,3.0,92,0.00,,,0.00,Wunderground v.1.15,2013-01-22 06:55:00,
2013-01-21 23:00:00,34.2,32.1,30.13,ESE,120,0.0,0.0,92,0.00,,,0.00,Wunderground v.1.15,2013-01-22 07:00:00,
2013-01-21 23:05:00,34.2,32.1,30.13,ESE,120,0.0,0.0,92,0.00,,,0.00,Wunderground v.1.15,2013-01-22 07:05:00,
2013-01-21 23:15:00,34.3,32.2,30.12,ESE,120,0.0,0.0,92,0.00,,,0.00,Wunderground v.1.15,2013-01-22 07:15:00,
2013-01-21 23:25:00,34.5,32.4,30.13,ESE,120,0.0,0.0,92,0.00,,,0.00,Wunderground v.1.15,2013-01-22 07:25:00,
2013-01-21 23:35:00,34.5,32.7,30.12,ESE,120,0.0,3.0,93,0.00,,,0.00,Wunderground v.1.15,2013-01-22 07:35:00,
2013-01-21 23:45:00,34.7,32.9,30.12,SE,145,0.0,3.0,93,0.00,,,0.00,Wunderground v.1.15,2013-01-22 07:45:00,
2013-01-21 23:55:00,34.7,33.2,30.11,SSE,149,0.0,3.0,94,0.00,,,0.00,Wunderground v.1.15,2013-01-22 07:55:00,